Time;durP1;ratioP1;P1;durP2;ratioP2;P2;SDS_P1;SDS_P2;PMS_P1;PMS_P2;Temp;Humidity;BMP_temperature;BMP_pressure;BME280_temperature;BME280_humidity;BME280_pressure;Samples;Min_cycle;Max_cycle;Signal;HPM_P1;HPM_P2
2021/11/08 00:01:30;;;;;;;5.17;4.57;;;5.40;99.90;;;;;;5081705;28;20403;-80
2021/11/08 00:03:56;;;;;;;6.07;4.70;;;;;;;;;;5081742;28;20785;-80
2021/11/08 00:06:23;;;;;;;5.57;5.07;;;;;;;;;;5081313;28;20820;-80
2021/11/08 00:08:49;;;;;;;6.03;4.93;;;5.40;99.90;;;;;;5064336;28;20913;-80
2021/11/08 00:11:15;;;;;;;5.30;4.70;;;;;;;;;;5082483;28;20403;-80
2021/11/08 00:13:43;;;;;;;5.57;4.70;;;5.40;99.90;;;;;;5082280;28;20686;-80
2021/11/08 00:18:59;;;;;;;4.80;4.00;;;;;;;;;;5081274;28;20869;-80
2021/11/08 00:21:29;;;;;;;5.17;4.53;;;5.40;99.90;;;;;;5080959;28;20189;-80
2021/11/08 00:23:55;;;;;;;6.30;4.93;;;5.40;99.90;;;;;;5063054;28;20431;-80
2021/11/08 00:26:21;;;;;;;4.40;4.00;;;;;;;;;;5062733;28;20422;-80
2021/11/08 00:28:46;;;;;;;5.93;5.10;;;5.40;99.90;;;;;;5081177;28;20178;-80
2021/11/08 00:31:13;;;;;;;5.23;4.43;;;;;;;;;;5063889;28;20548;-80
2021/11/08 00:33:40;;;;;;;5.77;4.80;;;;;;;;;;5064387;28;20223;-80
2021/11/08 00:36:07;;;;;;;5.53;4.77;;;;;;;;;;5064561;28;20411;-80
2021/11/08 00:38:33;;;;;;;5.23;4.73;;;;;;;;;;5084545;28;20461;-80
2021/11/08 00:40:59;;;;;;;6.80;4.83;;;;;;;;;;5083879;28;20252;-80
2021/11/08 00:43:26;;;;;;;5.90;5.30;;;5.50;99.90;;;;;;5061799;28;20434;-80
2021/11/08 00:45:52;;;;;;;7.37;5.60;;;5.50;99.90;;;;;;5079852;28;20419;-80
2021/11/08 00:48:21;;;;;;;5.77;5.17;;;;;;;;;;5061978;28;20425;-80
2021/11/08 00:50:49;;;;;;;6.13;4.90;;;5.50;99.90;;;;;;5061552;28;20176;-80
2021/11/08 00:53:15;;;;;;;6.17;4.73;;;5.40;99.90;;;;;;5061801;28;20221;-80
2021/11/08 00:55:42;;;;;;;5.87;4.93;;;5.40;99.90;;;;;;5079795;28;20208;-80
2021/11/08 00:58:15;;;;;;;5.13;4.63;;;5.20;99.90;;;;;;5061546;28;20203;-80
2021/11/08 01:00:41;;;;;;;6.10;5.13;;;5.20;99.90;;;;;;5061544;28;20174;-80
2021/11/08 01:03:08;;;;;;;7.40;5.20;;;5.30;99.90;;;;;;5061146;28;20213;-80
2021/11/08 01:05:34;;;;;;;9.20;5.00;;;5.50;99.90;;;;;;5077564;28;20193;-80
2021/11/08 01:08:00;;;;;;;7.47;5.50;;;5.20;99.90;;;;;;5061402;28;20185;-80
2021/11/08 01:10:26;;;;;;;6.37;4.57;;;5.50;99.90;;;;;;5061477;28;20614;-81
2021/11/08 01:12:52;;;;;;;6.70;4.97;;;;;;;;;;5078992;28;20241;-80
2021/11/08 01:15:18;;;;;;;6.50;4.77;;;5.20;99.90;;;;;;5061681;28;20190;-80
2021/11/08 01:17:45;;;;;;;4.80;4.30;;;5.00;99.90;;;;;;5061473;28;20182;-80
2021/11/08 01:20:12;;;;;;;6.03;4.37;;;5.10;99.90;;;;;;5079454;28;20231;-81
2021/11/08 01:22:38;;;;;;;7.50;4.17;;;5.10;99.90;;;;;;5078042;28;20662;-80
2021/11/08 01:25:05;;;;;;;8.43;4.17;;;5.10;99.90;;;;;;5061648;28;20202;-80
2021/11/08 01:27:37;;;;;;;7.03;4.40;;;5.20;99.90;;;;;;5061053;28;20203;-80
2021/11/08 01:30:08;;;;;;;6.63;4.77;;;5.10;99.90;;;;;;5061318;28;20173;-80
2021/11/08 01:32:34;;;;;;;6.30;4.80;;;5.20;99.90;;;;;;5077586;28;20200;-81
2021/11/08 01:35:00;;;;;;;8.10;4.57;;;5.20;99.90;;;;;;5060516;28;20550;-80
2021/11/08 01:37:28;;;;;;;6.53;4.63;;;;;;;;;;5078890;28;20178;-80
2021/11/08 01:39:54;;;;;;;9.83;4.90;;;5.10;99.90;;;;;;5060424;28;20192;-80
2021/11/08 01:42:19;;;;;;;10.77;5.00;;;5.00;99.90;;;;;;5078549;28;20545;-80
2021/11/08 01:44:46;;;;;;;9.53;4.77;;;;;;;;;;5060449;28;20209;-80
2021/11/08 01:47:12;;;;;;;7.77;4.67;;;;;;;;;;5078846;28;20201;-80
2021/11/08 01:49:40;;;;;;;8.10;4.87;;;5.10;99.90;;;;;;5079026;28;20631;-80
2021/11/08 01:52:08;;;;;;;6.83;5.00;;;5.10;99.90;;;;;;5078834;28;20206;-80
2021/11/08 01:54:34;;;;;;;8.63;5.07;;;;;;;;;;5076810;28;20253;-80
2021/11/08 01:57:00;;;;;;;9.43;4.60;;;5.10;99.90;;;;;;5060617;28;20189;-80
2021/11/08 01:59:29;;;;;;;8.10;4.70;;;5.20;99.90;;;;;;5060411;28;20244;-80
2021/11/08 02:01:55;;;;;;;10.33;5.23;;;5.20;99.90;;;;;;5060071;28;20185;-80
2021/11/08 02:04:22;;;;;;;7.90;6.00;;;5.10;99.90;;;;;;5078346;28;20201;-80
2021/11/08 02:06:49;;;;;;;10.57;5.73;;;5.20;99.90;;;;;;5077904;28;20203;-81
2021/11/08 02:09:15;;;;;;;7.30;5.47;;;;;;;;;;5060175;28;20623;-80
2021/11/08 02:11:41;;;;;;;7.97;5.90;;;5.20;99.90;;;;;;5078548;28;20181;-81
2021/11/08 02:14:07;;;;;;;6.63;5.37;;;5.30;99.90;;;;;;5079472;28;20197;-81
2021/11/08 02:16:35;;;;;;;6.60;5.07;;;5.20;99.90;;;;;;5080625;28;20178;-80
2021/11/08 02:19:02;;;;;;;7.70;5.63;;;5.20;99.90;;;;;;5080251;28;20538;-80
2021/11/08 02:21:29;;;;;;;6.93;4.80;;;;;;;;;;5077885;28;20644;-80
2021/11/08 02:23:56;;;;;;;9.57;5.90;;;5.00;99.90;;;;;;5079089;28;20647;-80
2021/11/08 02:26:21;;;;;;;7.43;5.77;;;5.30;99.90;;;;;;5061188;28;20273;-80
2021/11/08 02:28:50;;;;;;;7.13;5.50;;;5.20;99.90;;;;;;5058966;28;20241;-80
2021/11/08 02:31:20;;;;;;;7.10;5.53;;;5.20;99.90;;;;;;5075155;28;20181;-80
2021/11/08 02:33:47;;;;;;;6.20;5.60;;;5.40;99.90;;;;;;5058276;28;20247;-80
2021/11/08 02:36:14;;;;;;;5.93;5.30;;;5.20;99.90;;;;;;5075923;28;20196;-80
2021/11/08 02:38:45;;;;;;;7.80;5.53;;;;;;;;;;5076691;28;20174;-80
2021/11/08 02:41:10;;;;;;;7.57;5.37;;;5.20;99.90;;;;;;5076323;28;20226;-81
2021/11/08 02:43:39;;;;;;;6.93;5.70;;;5.20;99.90;;;;;;5057760;28;20289;-80
2021/11/08 02:46:10;;;;;;;9.40;5.23;;;5.00;99.90;;;;;;5057169;28;20201;-79
2021/11/08 02:48:38;;;;;;;7.03;4.90;;;5.20;99.90;;;;;;5057096;28;20178;-80
2021/11/08 02:51:14;;;;;;;5.77;4.80;;;5.00;99.90;;;;;;5078176;28;20182;-80
2021/11/08 02:53:41;;;;;;;8.20;5.00;;;5.10;99.90;;;;;;5078231;28;20201;-80
2021/11/08 02:56:09;;;;;;;9.93;4.80;;;5.10;99.90;;;;;;5060472;28;20258;-80
2021/11/08 02:58:37;;;;;;;6.00;4.77;;;5.10;99.90;;;;;;5060757;28;20183;-80
2021/11/08 03:01:04;;;;;;;4.53;4.03;;;5.10;99.90;;;;;;5060463;28;20660;-81
2021/11/08 03:03:36;;;;;;;6.60;4.50;;;5.10;99.90;;;;;;5061893;28;20205;-80
2021/11/08 03:06:10;;;;;;;6.13;4.73;;;4.90;99.90;;;;;;5080140;28;20159;-80
2021/11/08 03:08:36;;;;;;;9.10;5.10;;;;;;;;;;5065128;28;20180;-80
2021/11/08 03:11:03;;;;;;;5.20;3.93;;;;;;;;;;5059405;28;20205;-80
2021/11/08 03:13:33;;;;;;;10.17;4.70;;;4.90;99.90;;;;;;5059929;28;20311;-80
2021/11/08 03:16:07;;;;;;;9.43;4.13;;;5.10;99.90;;;;;;5059507;28;20171;-80
2021/11/08 03:18:41;;;;;;;8.13;4.70;;;5.00;99.90;;;;;;5059756;28;20252;-81
2021/11/08 03:21:19;;;;;;;8.97;4.40;;;5.00;99.90;;;;;;5059533;28;20311;-80
2021/11/08 03:23:47;;;;;;;11.37;4.80;;;5.10;99.90;;;;;;5076966;28;20193;-80
2021/11/08 03:28:59;;;;;;;9.07;4.40;;;5.00;99.90;;;;;;5077408;28;20180;-80
2021/11/08 03:31:26;;;;;;;7.93;4.10;;;4.90;99.90;;;;;;5058809;28;20290;-80
2021/11/08 03:33:52;;;;;;;5.53;3.80;;;4.80;99.90;;;;;;5058713;28;20271;-80
2021/11/08 03:36:18;;;;;;;10.23;4.10;;;4.70;99.90;;;;;;5058235;28;20174;-80
2021/11/08 03:38:44;;;;;;;7.57;3.77;;;4.80;99.90;;;;;;5076911;28;20704;-80
2021/11/08 03:41:10;;;;;;;6.37;3.90;;;4.80;99.90;;;;;;5059263;28;20185;-80
2021/11/08 03:43:37;;;;;;;5.63;3.97;;;4.80;99.90;;;;;;5077221;28;20278;-80
2021/11/08 03:46:04;;;;;;;7.77;3.97;;;4.70;99.90;;;;;;5059402;28;20640;-82
2021/11/08 03:48:30;;;;;;;6.67;3.60;;;4.60;99.90;;;;;;5077616;28;20198;-80
2021/11/08 03:50:56;;;;;;;9.33;3.50;;;;;;;;;;5059077;28;20544;-80
2021/11/08 03:53:22;;;;;;;4.90;3.97;;;5.00;99.90;;;;;;5077180;28;20204;-80
2021/11/08 03:55:49;;;;;;;5.77;3.83;;;4.60;99.90;;;;;;5059121;28;20227;-80
2021/11/08 03:58:15;;;;;;;6.93;4.30;;;4.70;99.90;;;;;;5059778;28;20184;-80
2021/11/08 04:00:41;;;;;;;6.50;4.17;;;4.70;99.90;;;;;;5075918;28;20189;-80
2021/11/08 04:03:09;;;;;;;5.37;3.40;;;4.70;99.90;;;;;;5059432;28;20202;-80
2021/11/08 04:05:39;;;;;;;9.43;4.40;;;4.70;99.90;;;;;;5059088;28;20181;-81
2021/11/08 04:08:09;;;;;;;5.23;3.87;;;4.80;99.90;;;;;;5078167;28;20178;-80
2021/11/08 04:10:41;;;;;;;6.87;3.93;;;4.70;99.90;;;;;;5077079;28;20182;-80
2021/11/08 04:13:08;;;;;;;8.90;3.47;;;4.50;99.90;;;;;;5077381;28;20610;-80
2021/11/08 04:15:38;;;;;;;7.40;4.40;;;4.70;99.90;;;;;;5059047;28;20177;-80
2021/11/08 04:18:10;;;;;;;10.17;4.30;;;4.70;99.90;;;;;;5077740;28;20383;-80
2021/11/08 04:20:38;;;;;;;6.57;4.40;;;4.80;99.90;;;;;;5069688;28;20431;-79
2021/11/08 04:23:04;;;;;;;6.87;4.47;;;;;;;;;;5089399;28;20438;-80
2021/11/08 04:25:30;;;;;;;12.40;4.10;;;;;;;;;;5088115;28;20400;-80
2021/11/08 04:27:57;;;;;;;11.00;4.10;;;;;;;;;;5078443;28;20406;-80
2021/11/08 04:30:26;;;;;;;11.40;4.90;;;;;;;;;;5058871;28;20991;-80
2021/11/08 04:35:28;;;;;;;6.50;3.47;;;;;;;;;;5076317;28;20502;-80
2021/11/08 04:38:10;;;;;;;5.33;4.10;;;4.60;99.90;;;;;;5076728;28;20754;-80
2021/11/08 04:46:44;;;;;;;4.83;3.70;;;4.70;99.90;;;;;;5080535;28;20447;-80
2021/11/08 04:48:53;;;;;;;8.40;4.43;;;;;;;;;;5071380;28;20185;-80
2021/11/08 04:51:35;;;;;;;4.17;3.60;;;;;;;;;;5062030;28;20436;-80
2021/11/08 05:31:46;;;;;;;6.73;5.13;;;4.70;99.90;;;;;;5080978;28;20392;-81
2021/11/08 05:34:12;;;;;;;12.00;5.17;;;4.70;99.90;;;;;;5083300;28;20426;-81
2021/11/08 05:36:38;;;;;;;12.40;5.17;;;4.80;99.90;;;;;;5083583;28;20415;-80
2021/11/08 05:39:05;;;;;;;6.47;4.53;;;4.70;99.90;;;;;;5059228;28;20426;-80
2021/11/08 05:41:33;;;;;;;8.90;5.50;;;4.60;99.90;;;;;;5059114;28;20776;-80
2021/11/08 05:44:00;;;;;;;8.93;4.80;;;4.60;99.90;;;;;;5058828;28;21048;-80
2021/11/08 05:46:26;;;;;;;8.43;4.70;;;;;;;;;;5076875;28;20443;-80
2021/11/08 05:48:52;;;;;;;10.20;5.03;;;4.50;99.90;;;;;;5059166;28;20427;-80
2021/11/08 05:51:17;;;;;;;6.97;4.60;;;4.40;99.90;;;;;;5058304;28;20430;-80
2021/11/08 05:53:44;;;;;;;8.13;4.20;;;4.40;99.90;;;;;;5058290;28;20690;-80
2021/11/08 06:48:43;;;;;;;12.67;8.43;;;4.10;99.90;;;;;;5077779;28;20829;-81
2021/11/08 06:51:09;;;;;;;13.40;7.67;;;4.00;99.90;;;;;;5077854;28;20411;-82
2021/11/08 06:53:36;;;;;;;12.27;6.33;;;4.10;99.90;;;;;;5060107;28;20843;-82
2021/11/08 06:56:02;;;;;;;18.03;7.13;;;4.00;99.90;;;;;;5060098;28;20426;-82
2021/11/08 06:58:28;;;;;;;14.10;7.07;;;;;;;;;;5066754;28;20424;-80
2021/11/08 07:00:56;;;;;;;10.13;5.87;;;4.00;99.90;;;;;;5074041;28;20415;-81
2021/11/08 07:03:22;;;;;;;14.17;6.70;;;;;;;;;;5080655;28;20430;-82
2021/11/08 07:05:49;;;;;;;14.20;5.13;;;4.20;99.90;;;;;;5058293;28;20442;-81
2021/11/08 07:08:15;;;;;;;16.00;6.50;;;4.30;99.90;;;;;;5076872;28;20415;-82
2021/11/08 07:10:41;;;;;;;14.90;6.47;;;;;;;;;;5059109;28;20449;-82
2021/11/08 07:13:07;;;;;;;15.83;7.43;;;4.50;99.90;;;;;;5059386;28;20462;-81
2021/11/08 07:15:34;;;;;;;15.80;8.67;;;;;;;;;;5058014;28;20422;-81
2021/11/08 07:18:00;;;;;;;16.63;8.27;;;;;;;;;;5076372;28;20418;-81
2021/11/08 07:20:28;;;;;;;12.20;8.33;;;4.80;99.90;;;;;;5058263;28;20430;-82
2021/11/08 07:22:55;;;;;;;11.90;7.60;;;;;;;;;;5076720;28;20439;-81
2021/11/08 07:25:22;;;;;;;10.70;7.77;;;;;;;;;;5076461;28;20435;-82
2021/11/08 07:27:48;;;;;;;12.83;7.50;;;;;;;;;;5058602;28;20429;-82
2021/11/08 07:30:15;;;;;;;12.10;7.20;;;;;;;;;;5058673;28;20418;-82
2021/11/08 07:32:41;;;;;;;19.30;8.20;;;;;;;;;;5058733;28;20462;-82
2021/11/08 07:35:08;;;;;;;12.17;7.23;;;;;;;;;;5058789;28;20415;-82
2021/11/08 07:37:34;;;;;;;15.37;8.03;;;5.20;99.90;;;;;;5077133;28;20446;-82
2021/11/08 07:39:59;;;;;;;10.63;8.13;;;5.10;99.90;;;;;;5076899;28;20403;-82
2021/11/08 07:42:25;;;;;;;11.43;7.77;;;5.10;99.90;;;;;;5058855;28;20188;-82
2021/11/08 07:44:51;;;;;;;11.17;7.87;;;5.00;99.90;;;;;;5059384;28;20201;-82
2021/11/08 07:47:17;;;;;;;12.33;8.43;;;5.10;99.90;;;;;;5076943;28;20176;-82
2021/11/08 07:49:43;;;;;;;18.47;7.70;;;5.30;99.90;;;;;;5057727;28;20177;-81
2021/11/08 07:52:09;;;;;;;14.43;7.73;;;5.40;99.90;;;;;;5059063;28;20207;-82
2021/11/08 07:54:36;;;;;;;12.83;6.57;;;5.60;99.90;;;;;;5078085;28;20532;-82
2021/11/08 07:57:03;;;;;;;12.23;8.27;;;5.70;99.90;;;;;;5079540;28;20407;-82
2021/11/08 07:59:29;;;;;;;9.53;5.70;;;5.80;99.90;;;;;;5062234;28;20173;-82
2021/11/08 08:01:55;;;;;;;14.67;7.07;;;5.90;99.90;;;;;;5063023;28;20424;-82
2021/11/08 08:04:21;;;;;;;12.77;8.07;;;6.10;99.90;;;;;;5065496;28;20200;-82
2021/11/08 08:06:51;;;;;;;11.00;7.23;;;6.20;99.90;;;;;;5058550;28;20177;-82
2021/11/08 08:09:18;;;;;;;10.17;6.70;;;6.30;99.90;;;;;;5076839;28;20403;-82
2021/11/08 08:11:44;;;;;;;8.90;5.70;;;6.30;99.90;;;;;;5075012;28;20904;-82
2021/11/08 08:14:11;;;;;;;10.67;6.63;;;6.40;99.90;;;;;;5075222;28;20435;-82
2021/11/08 08:16:37;;;;;;;10.37;5.70;;;6.50;99.90;;;;;;5079737;28;20180;-82
2021/11/08 08:19:04;;;;;;;7.63;4.80;;;6.60;99.90;;;;;;5079343;28;20482;-81
2021/11/08 08:21:30;;;;;;;10.00;4.83;;;6.70;99.90;;;;;;5078858;28;20227;-81
2021/11/08 08:23:58;;;;;;;11.53;4.90;;;6.70;99.90;;;;;;5079865;28;20561;-82
2021/11/08 08:26:33;;;;;;;8.07;4.63;;;6.60;99.90;;;;;;5062738;28;20172;-82
2021/11/08 08:29:03;;;;;;;8.90;5.30;;;6.50;99.90;;;;;;5080825;28;20161;-82
2021/11/08 08:31:30;;;;;;;8.10;5.33;;;6.60;99.90;;;;;;5080969;28;20256;-82
2021/11/08 08:33:56;;;;;;;8.07;4.70;;;6.80;99.90;;;;;;5079120;28;20209;-81
2021/11/08 08:36:21;;;;;;;8.23;4.27;;;6.80;99.90;;;;;;5079247;28;20172;-81
2021/11/08 08:38:49;;;;;;;9.43;4.83;;;7.00;99.90;;;;;;5061220;28;20182;-82
2021/11/08 08:41:15;;;;;;;8.93;4.40;;;7.20;99.90;;;;;;5061075;28;20178;-82
2021/11/08 08:43:41;;;;;;;10.33;5.17;;;7.50;99.90;;;;;;5060704;28;20223;-82
2021/11/08 08:46:07;;;;;;;10.53;4.57;;;7.70;99.90;;;;;;5060988;28;20185;-81
2021/11/08 08:48:33;;;;;;;7.50;4.43;;;7.90;99.90;;;;;;5078588;28;20178;-82
2021/11/08 08:51:00;;;;;;;8.83;4.87;;;7.70;99.90;;;;;;5078864;28;20183;-81
2021/11/08 08:53:26;;;;;;;9.33;4.40;;;7.60;99.90;;;;;;5060591;28;20245;-82
2021/11/08 08:55:54;;;;;;;11.73;5.23;;;7.50;99.90;;;;;;5077950;28;20172;-82
2021/11/08 08:58:20;;;;;;;12.57;5.13;;;7.30;99.90;;;;;;5060330;28;20177;-81
2021/11/08 09:00:48;;;;;;;12.40;4.73;;;7.30;99.90;;;;;;5078187;28;20176;-82
2021/11/08 09:03:16;;;;;;;11.33;3.97;;;7.20;99.90;;;;;;5059776;28;20202;-82
2021/11/08 09:05:44;;;;;;;7.23;4.43;;;7.10;99.90;;;;;;5077149;28;20540;-82
2021/11/08 09:08:09;;;;;;;6.80;4.23;;;7.10;99.90;;;;;;5076609;28;20771;-81
2021/11/08 09:10:36;;;;;;;10.50;5.23;;;7.00;99.90;;;;;;5058998;28;20292;-81
2021/11/08 09:13:03;;;;;;;10.20;5.10;;;6.80;99.90;;;;;;5079145;28;20210;-82
2021/11/08 09:15:30;;;;;;;8.50;4.97;;;6.80;99.90;;;;;;5079595;28;20169;-82
2021/11/08 09:17:57;;;;;;;9.07;5.17;;;6.80;99.90;;;;;;5079394;28;20215;-82
2021/11/08 09:20:23;;;;;;;11.70;4.93;;;6.80;99.90;;;;;;5061507;28;20204;-82
2021/11/08 09:22:50;;;;;;;10.97;5.10;;;6.80;99.90;;;;;;5061143;28;20171;-82
2021/11/08 09:25:19;;;;;;;11.30;5.10;;;6.90;99.90;;;;;;5061463;28;20180;-82
2021/11/08 09:27:49;;;;;;;8.33;4.33;;;7.10;99.90;;;;;;5077641;28;20226;-82
2021/11/08 09:30:18;;;;;;;10.30;4.30;;;7.30;99.90;;;;;;5061935;28;20196;-82
2021/11/08 09:32:45;;;;;;;6.50;3.60;;;7.70;99.90;;;;;;5078980;28;20201;-82
2021/11/08 09:35:11;;;;;;;6.77;3.77;;;8.30;99.90;;;;;;5060840;28;20185;-82
2021/11/08 09:37:43;;;;;;;8.27;2.93;;;8.60;99.90;;;;;;5061776;28;20179;-82
2021/11/08 09:40:14;;;;;;;7.60;3.23;;;8.60;99.90;;;;;;5064185;28;20531;-82
2021/11/08 09:42:40;;;;;;;9.40;3.60;;;8.50;99.90;;;;;;5084052;28;20199;-82
2021/11/08 09:45:07;;;;;;;12.60;4.00;;;8.40;99.90;;;;;;5071135;28;20656;-81
2021/11/08 09:47:34;;;;;;;6.33;3.50;;;8.30;99.90;;;;;;5090813;28;20654;-81
2021/11/08 09:50:03;;;;;;;7.50;3.20;;;8.10;99.90;;;;;;5069629;28;20185;-82
2021/11/08 09:52:37;;;;;;;10.17;3.37;;;7.90;99.90;;;;;;5069420;28;20235;-82
2021/11/08 09:55:06;;;;;;;7.93;2.80;;;7.80;99.90;;;;;;5060336;28;20161;-82
2021/11/08 09:57:32;;;;;;;8.50;3.43;;;7.90;99.90;;;;;;5077085;28;20183;-82
2021/11/08 09:59:58;;;;;;;8.50;3.50;;;8.30;99.90;;;;;;5078474;28;20251;-82
2021/11/08 10:02:23;;;;;;;10.40;3.40;;;9.00;99.90;;;;;;5078612;28;20271;-82
2021/11/08 10:04:49;;;;;;;9.50;3.40;;;9.40;99.90;;;;;;5060143;28;20207;-82
2021/11/08 10:07:16;;;;;;;7.07;2.90;;;9.30;99.90;;;;;;5077965;28;20259;-82
2021/11/08 10:09:42;;;;;;;10.60;3.67;;;9.30;99.90;;;;;;5078070;28;20169;-82
2021/11/08 10:12:11;;;;;;;5.33;2.63;;;9.10;99.90;;;;;;5059989;28;20215;-82
2021/11/08 10:14:38;;;;;;;7.67;3.33;;;9.20;99.90;;;;;;5078260;28;20611;-82
2021/11/08 10:17:04;;;;;;;7.57;3.33;;;9.10;99.90;;;;;;5060079;28;20626;-82
2021/11/08 10:19:34;;;;;;;12.23;3.30;;;9.20;99.90;;;;;;5078164;28;20278;-82
2021/11/08 10:22:00;;;;;;;9.10;3.27;;;9.50;99.90;;;;;;5060727;28;20192;-82
2021/11/08 10:24:29;;;;;;;8.43;3.10;;;10.20;99.90;;;;;;5060852;28;20686;-82
2021/11/08 10:26:57;;;;;;;7.53;3.40;;;11.00;99.90;;;;;;5080151;28;20580;-82
2021/11/08 10:29:25;;;;;;;6.50;2.63;;;12.00;99.90;;;;;;5080287;28;20579;-82
2021/11/08 10:31:54;;;;;;;6.17;2.73;;;12.40;99.90;;;;;;5083377;28;20529;-82
2021/11/08 10:34:21;;;;;;;9.53;3.57;;;11.60;99.90;;;;;;5077637;28;20186;-82
2021/11/08 10:36:58;;;;;;;9.03;3.90;;;10.90;99.90;;;;;;5077818;28;20530;-82
2021/11/08 10:39:24;;;;;;;7.00;2.97;;;10.00;99.90;;;;;;5076524;28;20161;-82
2021/11/08 10:41:49;;;;;;;6.33;3.00;;;9.50;99.90;;;;;;5076275;28;20219;-82
2021/11/08 10:44:21;;;;;;;5.10;2.80;;;9.40;99.90;;;;;;5075733;28;20213;-82
2021/11/08 10:46:51;;;;;;;8.47;3.00;;;10.40;99.90;;;;;;5077462;28;20619;-82
2021/11/08 10:49:20;;;;;;;11.03;3.17;;;11.40;99.90;;;;;;5059635;28;20182;-82
2021/11/08 10:51:49;;;;;;;9.63;3.43;;;11.30;99.90;;;;;;5059775;28;20204;-82
2021/11/08 10:54:21;;;;;;;9.07;3.47;;;10.80;99.90;;;;;;5059385;28;20563;-82
2021/11/08 10:56:53;;;;;;;7.67;3.53;;;10.10;99.90;;;;;;5059022;28;20200;-82
2021/11/08 10:59:22;;;;;;;8.37;3.23;;;9.70;99.90;;;;;;5059463;28;20199;-82
2021/11/08 11:01:54;;;;;;;7.90;3.33;;;9.30;99.90;;;;;;5075635;28;20540;-82
2021/11/08 11:04:43;;;;;;;9.40;3.80;;;9.00;99.90;;;;;;5057621;28;20216;-82
2021/11/08 11:07:13;;;;;;;7.30;3.13;;;9.10;99.90;;;;;;5058517;28;20173;-82
2021/11/08 11:09:39;;;;;;;11.37;3.17;;;9.20;99.90;;;;;;5060079;28;20181;-82
2021/11/08 11:12:11;;;;;;;10.13;3.00;;;9.20;99.90;;;;;;5058899;28;20242;-82
2021/11/08 11:14:46;;;;;;;8.80;2.97;;;9.00;99.90;;;;;;5059120;28;20197;-82
2021/11/08 11:17:25;;;;;;;9.47;2.93;;;8.60;99.90;;;;;;5075992;28;20187;-81
2021/11/08 11:20:04;;;;;;;8.97;2.60;;;8.40;99.90;;;;;;5059065;28;20574;-82
2021/11/08 11:22:33;;;;;;;5.57;2.27;;;8.10;99.90;;;;;;5059463;28;20185;-82
2021/11/08 11:25:01;;;;;;;8.17;2.50;;;7.80;99.90;;;;;;5058862;28;20302;-82
2021/11/08 11:27:28;;;;;;;12.80;2.53;;;7.70;99.90;;;;;;5076797;28;20173;-82
2021/11/08 11:30:12;;;;;;;11.77;2.93;;;7.60;99.90;;;;;;5058991;28;20180;-82
2021/11/08 11:32:38;;;;;;;6.27;2.13;;;7.70;99.90;;;;;;5060755;28;20301;-82
2021/11/08 11:35:20;;;;;;;8.30;3.00;;;7.70;99.90;;;;;;5077565;28;20176;-82
2021/11/08 11:38:04;;;;;;;9.77;3.27;;;7.90;99.90;;;;;;5077696;28;20532;-82
2021/11/08 11:40:36;;;;;;;7.67;2.83;;;8.00;99.90;;;;;;5061513;28;20626;-82
2021/11/08 11:43:06;;;;;;;6.60;2.40;;;8.20;99.90;;;;;;5062258;28;20286;-82
2021/11/08 11:45:49;;;;;;;6.63;2.33;;;8.20;99.90;;;;;;5079780;28;20184;-81
2021/11/08 11:48:17;;;;;;;10.23;2.90;;;8.60;99.90;;;;;;5061713;28;20210;-82
2021/11/08 11:50:43;;;;;;;9.10;2.50;;;8.80;99.90;;;;;;5063320;28;20271;-82
2021/11/08 11:53:09;;;;;;;8.83;2.70;;;;;;;;;;5066200;28;20246;-82
2021/11/08 11:55:38;;;;;;;8.57;2.37;;;9.20;99.90;;;;;;5065561;28;20206;-82
2021/11/08 11:58:05;;;;;;;9.13;2.50;;;9.20;99.90;;;;;;5065366;28;20172;-82
2021/11/08 12:00:35;;;;;;;8.17;3.00;;;9.10;99.90;;;;;;5082763;28;20172;-81
2021/11/08 12:03:03;;;;;;;5.77;2.10;;;9.10;99.90;;;;;;5083758;28;20198;-82
2021/11/08 12:05:30;;;;;;;7.40;2.50;;;9.30;99.90;;;;;;5082764;28;20173;-81
2021/11/08 12:07:58;;;;;;;7.60;2.07;;;9.10;99.90;;;;;;5064048;28;20182;-82
2021/11/08 12:10:25;;;;;;;8.37;2.90;;;;;;;;;;5082339;28;20255;-81
2021/11/08 12:12:52;;;;;;;7.47;2.07;;;;;;;;;;5064854;28;20610;-81
2021/11/08 12:15:26;;;;;;;10.77;3.10;;;9.40;99.90;;;;;;5064397;28;20659;-82
2021/11/08 12:17:54;;;;;;;12.77;3.30;;;9.00;99.90;;;;;;5081912;28;20156;-82
2021/11/08 12:20:24;;;;;;;9.03;2.30;;;9.30;99.90;;;;;;5081154;28;20270;-83
2021/11/08 12:22:52;;;;;;;11.33;2.90;;;9.40;99.90;;;;;;5062589;28;20185;-82
2021/11/08 12:25:22;;;;;;;7.20;2.40;;;9.40;99.90;;;;;;5065632;28;20586;-82
2021/11/08 12:27:54;;;;;;;6.13;2.20;;;9.50;99.90;;;;;;5065951;28;20192;-83
2021/11/08 12:30:30;;;;;;;6.20;2.10;;;9.60;99.90;;;;;;5065921;28;20185;-83
2021/11/08 12:33:00;;;;;;;4.47;2.00;;;9.70;99.90;;;;;;5065269;28;20196;-83
2021/11/08 12:35:36;;;;;;;8.97;2.70;;;9.80;99.90;;;;;;5081481;28;20266;-83
2021/11/08 12:38:15;;;;;;;6.80;2.20;;;9.70;99.90;;;;;;5065000;28;20169;-82
2021/11/08 12:40:41;;;;;;;8.77;2.20;;;9.70;99.90;;;;;;5065230;28;20674;-83
2021/11/08 12:43:07;;;;;;;5.07;2.13;;;9.70;99.90;;;;;;5065051;28;20295;-83
2021/11/08 12:45:41;;;;;;;4.27;2.10;;;9.80;99.90;;;;;;5082652;28;20201;-83
2021/11/08 12:48:16;;;;;;;7.60;2.43;;;10.00;99.90;;;;;;5065109;28;20188;-83
2021/11/08 12:50:48;;;;;;;5.73;2.57;;;10.30;99.90;;;;;;5081762;28;20665;-83
2021/11/08 12:53:26;;;;;;;9.07;2.70;;;11.20;99.90;;;;;;5066039;28;20732;-83
2021/11/08 12:55:57;;;;;;;3.83;2.10;;;12.00;99.90;;;;;;5084550;28;20196;-83
2021/11/08 12:58:43;;;;;;;6.30;1.87;;;12.20;99.90;;;;;;5086560;28;20565;-83
2021/11/08 13:01:11;;;;;;;7.10;2.70;;;11.50;99.90;;;;;;5086522;28;20236;-82
2021/11/08 13:03:40;;;;;;;11.57;3.50;;;10.80;99.90;;;;;;5075438;28;20218;-82
2021/11/08 13:06:08;;;;;;;8.57;2.43;;;10.20;99.90;;;;;;5075786;28;20180;-81
2021/11/08 13:08:35;;;;;;;9.73;3.00;;;9.50;99.90;;;;;;5075579;28;20177;-83
2021/11/08 13:11:12;;;;;;;8.83;2.50;;;9.10;99.90;;;;;;5075464;28;20181;-82
2021/11/08 13:13:40;;;;;;;7.80;2.97;;;9.50;99.90;;;;;;5087877;28;20208;-82
2021/11/08 13:16:11;;;;;;;7.33;3.00;;;9.30;99.90;;;;;;5080890;28;20181;-82
2021/11/08 13:18:45;;;;;;;9.97;3.60;;;9.00;99.90;;;;;;5064531;28;20653;-82
2021/11/08 13:21:22;;;;;;;5.80;2.60;;;8.80;99.90;;;;;;5081820;28;20684;-82
2021/11/08 13:23:54;;;;;;;9.30;2.83;;;8.80;99.90;;;;;;5083732;28;20192;-82
2021/11/08 13:26:21;;;;;;;7.43;2.73;;;8.80;99.90;;;;;;5065118;28;20536;-82
2021/11/08 13:28:47;;;;;;;7.90;2.60;;;8.70;99.90;;;;;;5065391;28;20189;-82
2021/11/08 13:31:13;;;;;;;7.70;2.83;;;8.60;99.90;;;;;;5065641;28;20695;-81
2021/11/08 13:33:47;;;;;;;8.40;3.13;;;8.50;99.90;;;;;;5065625;28;20212;-82
2021/11/08 13:36:14;;;;;;;5.70;2.50;;;8.40;99.90;;;;;;5082295;28;20532;-82
2021/11/08 13:38:54;;;;;;;7.50;2.53;;;8.20;99.90;;;;;;5065570;28;20222;-82
2021/11/08 13:41:22;;;;;;;10.13;2.70;;;8.00;99.90;;;;;;5084264;28;20184;-82
2021/11/08 13:43:59;;;;;;;9.83;2.87;;;7.90;99.90;;;;;;5082050;28;20228;-82
2021/11/08 13:46:27;;;;;;;8.93;2.73;;;7.90;99.90;;;;;;5082640;28;20661;-83
2021/11/08 13:49:03;;;;;;;7.93;2.57;;;7.80;99.90;;;;;;5082202;28;20173;-82
2021/11/08 13:51:34;;;;;;;7.43;2.77;;;7.90;99.90;;;;;;5083055;28;20173;-83
2021/11/08 13:54:25;;;;;;;7.73;3.10;;;7.90;99.90;;;;;;5063985;28;20231;-83
2021/11/08 13:56:58;;;;;;;5.30;2.50;;;8.00;99.90;;;;;;5065099;28;20167;-82
2021/11/08 13:59:33;;;;;;;8.43;3.73;;;7.80;99.90;;;;;;5064930;28;20195;-82
2021/11/08 14:02:08;;;;;;;7.00;3.20;;;7.70;99.90;;;;;;5082107;28;20528;-82
2021/11/08 14:04:34;;;;;;;7.87;2.63;;;7.50;99.90;;;;;;5059981;28;20289;-82
2021/11/08 14:07:02;;;;;;;6.40;2.63;;;7.50;99.90;;;;;;5062068;28;20201;-83
2021/11/08 14:09:28;;;;;;;9.37;3.00;;;7.40;99.90;;;;;;5078982;28;20581;-83
2021/11/08 14:11:56;;;;;;;9.40;2.70;;;7.30;99.90;;;;;;5079099;28;20173;-83
2021/11/08 14:14:27;;;;;;;7.77;2.60;;;7.20;99.90;;;;;;5061064;28;20208;-83
2021/11/08 14:17:10;;;;;;;10.27;2.60;;;7.20;99.90;;;;;;5079637;28;20154;-83
2021/11/08 14:19:36;;;;;;;7.17;2.53;;;7.10;99.90;;;;;;5060579;28;20620;-83
2021/11/08 14:22:03;;;;;;;6.00;2.77;;;7.00;99.90;;;;;;5060079;28;20200;-83
2021/11/08 14:24:32;;;;;;;6.47;2.57;;;6.90;99.90;;;;;;5060360;28;20193;-83
2021/11/08 14:26:59;;;;;;;13.77;2.97;;;6.80;99.90;;;;;;5079397;28;20169;-83
2021/11/08 14:29:33;;;;;;;7.90;2.93;;;6.80;99.90;;;;;;5060809;28;20223;-83
2021/11/08 14:32:09;;;;;;;8.27;2.97;;;6.80;99.90;;;;;;5060915;28;20187;-83
2021/11/08 14:34:41;;;;;;;8.30;3.03;;;6.80;99.90;;;;;;5078385;28;20830;-83
2021/11/08 14:37:15;;;;;;;9.20;2.67;;;6.80;99.90;;;;;;5060501;28;20199;-83
2021/11/08 14:39:45;;;;;;;5.47;2.23;;;6.80;99.90;;;;;;5060435;28;20642;-83
2021/11/08 14:42:11;;;;;;;5.73;2.47;;;6.70;99.90;;;;;;5060422;28;20192;-83
2021/11/08 14:44:44;;;;;;;5.30;2.70;;;6.70;99.90;;;;;;5079335;28;20593;-83
2021/11/08 14:47:28;;;;;;;8.93;2.67;;;6.60;99.90;;;;;;5061444;28;20165;-83
2021/11/08 14:49:55;;;;;;;12.20;3.27;;;6.60;99.90;;;;;;5061105;28;20178;-85
2021/11/08 14:52:37;;;;;;;11.80;3.37;;;6.50;99.90;;;;;;5059685;28;20269;-84
2021/11/08 14:55:07;;;;;;;11.70;3.17;;;6.50;99.90;;;;;;5077990;28;20192;-83
2021/11/08 14:57:34;;;;;;;11.17;3.43;;;6.50;99.90;;;;;;5078328;28;20911;-83
2021/11/08 15:00:03;;;;;;;8.50;3.23;;;6.50;99.90;;;;;;5060350;28;20251;-82